Time;durP1;ratioP1;P1;durP2;ratioP2;P2;SDS_P1;SDS_P2;PMS_P1;PMS_P2;Temp;Humidity;BMP_temperature;BMP_pressure;BME280_temperature;BME280_humidity;BME280_pressure;Samples;Min_cycle;Max_cycle;Signal;HPM_P1;HPM_P2
2023/12/25 00:01:36;;;;;;;15.15;2.40;;;11.20;99.90;;;;;;5086148;28;20059;-67
2023/12/25 00:04:02;;;;;;;23.42;3.08;;;11.30;99.90;;;;;;5103162;28;20122;-67
2023/12/25 00:06:28;;;;;;;18.65;3.00;;;11.30;99.90;;;;;;5104775;27;20058;-66
2023/12/25 00:08:53;;;;;;;21.65;2.70;;;11.30;99.90;;;;;;5105524;27;20066;-67
2023/12/25 00:11:19;;;;;;;19.88;3.00;;;11.30;99.90;;;;;;5102888;28;20052;-66
2023/12/25 00:13:47;;;;;;;21.67;3.10;;;11.30;99.90;;;;;;5104228;28;20043;-67
2023/12/25 00:16:12;;;;;;;20.25;2.97;;;11.30;99.90;;;;;;5093548;28;20040;-67
2023/12/25 00:18:38;;;;;;;22.50;3.28;;;11.30;99.90;;;;;;5098620;28;20089;-67
2023/12/25 00:21:04;;;;;;;18.02;2.78;;;11.30;99.90;;;;;;5101966;28;20067;-66
2023/12/25 00:23:30;;;;;;;19.92;2.78;;;11.30;99.90;;;;;;5082737;28;20050;-67
2023/12/25 00:25:55;;;;;;;17.80;2.92;;;11.30;99.90;;;;;;5102862;28;20043;-68
2023/12/25 00:28:21;;;;;;;17.10;2.97;;;11.30;99.90;;;;;;5085466;28;20040;-71
2023/12/25 00:30:47;;;;;;;16.00;2.67;;;11.20;99.90;;;;;;5099752;28;20059;-65
2023/12/25 00:33:12;;;;;;;14.10;2.33;;;11.20;99.90;;;;;;5102966;28;20043;-67
2023/12/25 00:35:38;;;;;;;16.20;3.30;;;11.20;99.90;;;;;;5084887;28;20043;-67
2023/12/25 00:38:04;;;;;;;16.00;3.10;;;11.30;99.90;;;;;;5103113;27;20035;-67
2023/12/25 00:40:29;;;;;;;15.60;2.67;;;11.30;99.90;;;;;;5100202;28;20048;-67
2023/12/25 00:42:55;;;;;;;15.80;2.60;;;11.30;99.90;;;;;;5099291;28;20043;-66
2023/12/25 00:45:21;;;;;;;13.70;2.08;;;11.30;99.90;;;;;;5085636;28;20466;-68
2023/12/25 00:47:46;;;;;;;14.40;2.28;;;11.30;99.90;;;;;;5083236;28;20051;-69
2023/12/25 00:50:12;;;;;;;15.85;2.67;;;11.20;99.90;;;;;;5100004;28;20428;-68
2023/12/25 00:52:38;;;;;;;20.20;2.95;;;11.20;99.90;;;;;;5132901;27;20150;-68
2023/12/25 00:55:04;;;;;;;17.67;2.20;;;11.20;99.90;;;;;;5101150;28;20051;-69
2023/12/25 00:57:30;;;;;;;11.68;1.65;;;11.20;99.90;;;;;;5100292;28;20105;-68
2023/12/25 00:59:55;;;;;;;15.57;2.20;;;11.20;99.90;;;;;;5083957;28;20433;-69
2023/12/25 01:02:21;;;;;;;11.30;1.73;;;11.20;99.90;;;;;;5099907;28;20080;-69
2023/12/25 01:04:47;;;;;;;13.35;1.70;;;11.10;99.90;;;;;;5101131;28;20646;-68
2023/12/25 01:07:12;;;;;;;15.10;2.00;;;11.20;99.90;;;;;;5101784;28;20046;-68
2023/12/25 01:09:40;;;;;;;9.13;1.25;;;11.10;99.90;;;;;;5131949;27;20736;-68
2023/12/25 01:12:05;;;;;;;10.73;1.88;;;11.10;99.90;;;;;;5100277;28;20130;-68
2023/12/25 01:14:31;;;;;;;8.50;1.70;;;11.10;99.90;;;;;;5100477;27;20209;-68
2023/12/25 01:16:58;;;;;;;8.73;1.42;;;11.10;99.90;;;;;;5101513;28;20054;-69
2023/12/25 01:19:24;;;;;;;13.52;1.65;;;11.10;99.90;;;;;;5082242;28;20820;-69
2023/12/25 01:21:49;;;;;;;11.10;1.60;;;11.10;99.90;;;;;;5083540;28;20158;-69
2023/12/25 01:24:15;;;;;;;16.17;2.17;;;11.00;99.90;;;;;;5084294;28;20051;-69
2023/12/25 01:26:41;;;;;;;10.38;1.95;;;11.00;99.90;;;;;;5101251;28;20395;-68
2023/12/25 01:29:06;;;;;;;11.65;1.92;;;11.00;99.90;;;;;;5100007;28;20052;-68
2023/12/25 01:31:32;;;;;;;12.27;1.52;;;11.00;99.90;;;;;;5100919;28;20054;-69
2023/12/25 01:33:58;;;;;;;14.07;2.40;;;11.00;99.90;;;;;;5098315;28;20082;-69
2023/12/25 01:36:24;;;;;;;19.55;3.05;;;11.00;99.90;;;;;;5101819;28;20112;-68
2023/12/25 01:38:51;;;;;;;15.48;2.13;;;11.00;99.90;;;;;;5100257;28;20404;-68
2023/12/25 01:41:16;;;;;;;14.13;2.28;;;11.30;99.90;;;;;;5099217;28;20050;-69
2023/12/25 01:43:42;;;;;;;8.85;1.70;;;10.90;99.90;;;;;;5084572;28;20044;-68
2023/12/25 01:46:12;;;;;;;11.07;2.28;;;10.90;99.90;;;;;;5099790;28;20134;-68
2023/12/25 01:48:39;;;;;;;15.52;1.98;;;10.90;99.90;;;;;;5100551;28;20415;-66
2023/12/25 01:51:05;;;;;;;10.82;1.98;;;10.90;99.90;;;;;;5098900;28;20119;-66
2023/12/25 01:53:31;;;;;;;11.02;2.28;;;10.90;99.90;;;;;;5132876;27;20053;-74
2023/12/25 01:55:56;;;;;;;14.90;2.15;;;10.80;99.90;;;;;;5100963;28;20055;-66
2023/12/25 01:58:22;;;;;;;13.95;1.70;;;10.80;99.90;;;;;;5099367;28;20403;-66
2023/12/25 02:00:48;;;;;;;15.88;3.03;;;10.80;99.90;;;;;;5083952;28;22207;-67
2023/12/25 02:03:14;;;;;;;13.20;2.08;;;10.70;99.90;;;;;;5097962;28;20035;-66
2023/12/25 02:05:39;;;;;;;16.42;2.25;;;10.80;99.90;;;;;;5100299;28;20047;-66
2023/12/25 02:08:06;;;;;;;11.93;2.00;;;10.80;99.90;;;;;;5100619;28;20499;-66
2023/12/25 02:10:32;;;;;;;11.90;1.83;;;10.80;99.90;;;;;;5086912;28;20555;-66
2023/12/25 02:13:00;;;;;;;14.55;2.35;;;10.70;99.90;;;;;;5087922;28;20147;-66
2023/12/25 02:15:26;;;;;;;16.75;3.15;;;10.70;99.90;;;;;;5101783;28;20419;-66
2023/12/25 02:17:52;;;;;;;15.25;2.53;;;10.60;99.90;;;;;;5104118;28;20062;-67
2023/12/25 02:20:19;;;;;;;15.25;2.10;;;10.60;99.90;;;;;;5101998;28;20047;-66
2023/12/25 02:22:45;;;;;;;13.68;2.08;;;10.60;99.90;;;;;;5132177;27;20656;-66
2023/12/25 02:25:24;;;;;;;15.50;2.28;;;10.70;99.90;;;;;;5102565;27;20035;-66
2023/12/25 02:27:54;;;;;;;14.02;2.83;;;10.60;99.90;;;;;;5102601;28;20128;-66
2023/12/25 02:30:20;;;;;;;12.88;2.08;;;10.60;99.90;;;;;;5100805;28;20523;-66
2023/12/25 02:32:46;;;;;;;9.80;2.08;;;10.60;99.90;;;;;;5117019;27;20052;-66
2023/12/25 02:35:12;;;;;;;21.15;2.72;;;10.50;99.90;;;;;;5134300;27;20039;-70
2023/12/25 02:37:38;;;;;;;14.02;2.30;;;10.60;99.90;;;;;;5104909;28;20097;-66
2023/12/25 02:40:06;;;;;;;17.20;2.13;;;10.60;99.90;;;;;;5083698;28;20043;-66
2023/12/25 02:42:31;;;;;;;18.02;2.72;;;10.50;99.90;;;;;;5087142;28;20047;-66
2023/12/25 02:44:57;;;;;;;16.85;2.42;;;10.50;99.90;;;;;;5085942;28;20609;-65
2023/12/25 02:47:23;;;;;;;21.92;3.85;;;10.60;99.90;;;;;;5104243;28;20048;-66
2023/12/25 02:49:48;;;;;;;18.73;2.38;;;10.60;99.90;;;;;;5104478;28;20484;-66
2023/12/25 02:52:14;;;;;;;15.15;2.20;;;10.60;99.90;;;;;;5103250;28;20043;-66
2023/12/25 02:54:40;;;;;;;16.30;2.38;;;10.60;99.90;;;;;;5104262;28;20277;-66
2023/12/25 02:57:06;;;;;;;18.15;2.63;;;10.60;99.90;;;;;;5103731;28;20047;-66
2023/12/25 02:59:32;;;;;;;18.67;2.63;;;10.60;99.90;;;;;;5089126;28;20766;-66
2023/12/25 03:01:58;;;;;;;19.80;3.55;;;10.60;99.90;;;;;;5106169;27;20039;-66
2023/12/25 03:04:24;;;;;;;16.38;2.50;;;10.60;99.90;;;;;;5104522;28;20066;-66
2023/12/25 03:06:49;;;;;;;15.10;2.20;;;10.60;99.90;;;;;;5087613;28;20047;-66
2023/12/25 03:09:16;;;;;;;16.95;2.20;;;10.60;99.90;;;;;;5103829;28;20047;-66
2023/12/25 03:11:43;;;;;;;12.63;2.05;;;10.70;99.90;;;;;;5103050;28;20075;-66
2023/12/25 03:14:09;;;;;;;12.52;2.20;;;10.60;99.90;;;;;;5102664;28;20067;-66
2023/12/25 03:16:34;;;;;;;12.98;1.92;;;10.60;99.90;;;;;;5086756;28;20087;-66
2023/12/25 03:19:00;;;;;;;11.68;2.20;;;10.60;99.90;;;;;;5103669;28;20089;-66
2023/12/25 03:21:26;;;;;;;12.45;2.20;;;10.60;99.90;;;;;;5103101;28;20604;-67
2023/12/25 03:23:51;;;;;;;13.93;2.08;;;10.60;99.90;;;;;;5104530;28;20043;-66
2023/12/25 03:26:17;;;;;;;18.73;2.40;;;10.60;99.90;;;;;;5104816;28;20543;-66
2023/12/25 03:28:43;;;;;;;16.13;3.03;;;10.60;99.90;;;;;;5105440;27;20044;-66
2023/12/25 03:31:09;;;;;;;14.40;2.05;;;10.60;99.90;;;;;;5103603;28;20412;-67
2023/12/25 03:33:35;;;;;;;20.95;2.28;;;10.60;99.90;;;;;;5105209;28;20633;-67
2023/12/25 03:36:00;;;;;;;14.27;1.77;;;10.60;99.90;;;;;;5103364;28;20461;-66
2023/12/25 03:38:26;;;;;;;14.88;2.10;;;10.60;99.90;;;;;;5103438;28;20798;-66
2023/12/25 03:40:52;;;;;;;16.63;2.05;;;10.60;99.90;;;;;;5103392;28;20089;-66
2023/12/25 03:43:17;;;;;;;15.02;2.10;;;10.50;99.90;;;;;;5103211;28;20048;-66
2023/12/25 03:45:43;;;;;;;18.60;2.85;;;10.50;99.90;;;;;;5104626;28;20468;-66
2023/12/25 03:48:09;;;;;;;17.17;2.60;;;10.50;99.90;;;;;;5103837;28;20114;-66
2023/12/25 03:50:35;;;;;;;21.33;2.83;;;10.50;99.90;;;;;;5104044;28;20164;-67
2023/12/25 03:53:00;;;;;;;18.55;2.25;;;10.40;99.90;;;;;;5104486;28;20039;-66
2023/12/25 03:55:26;;;;;;;15.32;2.50;;;10.50;99.90;;;;;;5098954;28;20051;-65
2023/12/25 03:57:52;;;;;;;21.80;2.67;;;10.50;99.90;;;;;;5086609;28;20051;-66
2023/12/25 04:00:17;;;;;;;12.68;2.30;;;10.40;99.90;;;;;;5087176;28;20096;-68
2023/12/25 04:02:43;;;;;;;15.60;1.80;;;10.40;99.90;;;;;;5104063;28;20059;-66
2023/12/25 04:05:09;;;;;;;14.15;2.33;;;10.50;99.90;;;;;;5104552;28;20031;-66
2023/12/25 04:07:35;;;;;;;12.10;1.77;;;10.40;99.90;;;;;;5085697;28;20044;-66
2023/12/25 04:10:02;;;;;;;11.57;2.22;;;10.60;99.90;;;;;;5101902;28;20326;-66
2023/12/25 04:12:28;;;;;;;11.73;1.90;;;10.40;99.90;;;;;;5134722;27;20097;-66
2023/12/25 04:14:54;;;;;;;19.38;3.25;;;10.50;99.90;;;;;;5102643;28;20044;-65
2023/12/25 04:17:19;;;;;;;16.27;2.58;;;10.50;99.90;;;;;;5101299;28;20036;-65
2023/12/25 04:19:45;;;;;;;13.77;2.35;;;10.40;99.90;;;;;;5101946;28;20039;-65
2023/12/25 04:22:13;;;;;;;17.08;2.55;;;10.40;99.90;;;;;;5102025;28;20035;-65
2023/12/25 04:24:39;;;;;;;16.90;2.55;;;10.40;99.90;;;;;;5102150;28;20043;-68
2023/12/25 04:27:05;;;;;;;15.88;2.03;;;10.50;99.90;;;;;;5102129;27;20039;-64
2023/12/25 04:29:30;;;;;;;14.07;2.10;;;10.40;99.90;;;;;;5132344;27;20109;-65
2023/12/25 04:31:56;;;;;;;18.00;2.95;;;10.40;99.90;;;;;;5131471;27;20139;-65
2023/12/25 04:34:22;;;;;;;17.48;2.22;;;10.40;99.90;;;;;;5101398;28;20453;-66
2023/12/25 04:36:48;;;;;;;18.52;2.85;;;10.40;99.90;;;;;;5128981;27;20050;-65
2023/12/25 04:39:14;;;;;;;23.08;2.65;;;10.50;99.90;;;;;;5101491;28;20043;-66
2023/12/25 04:41:40;;;;;;;17.90;2.47;;;10.40;99.90;;;;;;5103279;28;20328;-66
2023/12/25 04:44:07;;;;;;;14.30;2.13;;;10.40;99.90;;;;;;5101713;28;20087;-65
2023/12/25 04:46:33;;;;;;;14.55;3.00;;;10.40;99.90;;;;;;5135490;27;20043;-65
2023/12/25 04:48:59;;;;;;;19.77;2.70;;;10.40;99.90;;;;;;5084558;28;20047;-66
2023/12/25 04:51:25;;;;;;;17.20;2.22;;;10.40;99.90;;;;;;5102054;28;20085;-66
2023/12/25 04:53:53;;;;;;;15.45;2.67;;;10.30;99.90;;;;;;5101012;28;20146;-66
2023/12/25 04:56:19;;;;;;;19.08;2.83;;;10.30;99.90;;;;;;5084463;28;20044;-66
2023/12/25 04:58:45;;;;;;;18.30;2.40;;;10.30;99.90;;;;;;5134070;27;20463;-66
2023/12/25 05:01:11;;;;;;;18.00;2.60;;;10.30;99.90;;;;;;5101301;28;20035;-66
2023/12/25 05:03:37;;;;;;;17.65;2.20;;;10.20;99.90;;;;;;5101229;28;20070;-66
2023/12/25 05:06:03;;;;;;;16.73;2.45;;;10.50;99.90;;;;;;5101241;28;20360;-66
2023/12/25 05:08:28;;;;;;;17.73;2.78;;;10.20;99.90;;;;;;5131220;27;20040;-65
2023/12/25 05:10:54;;;;;;;14.88;2.35;;;10.20;99.90;;;;;;5102686;27;20062;-66
2023/12/25 05:13:20;;;;;;;18.52;2.50;;;10.20;99.90;;;;;;5082708;28;20047;-66
2023/12/25 05:15:46;;;;;;;15.35;2.03;;;10.10;99.90;;;;;;5100875;28;20039;-66
2023/12/25 05:18:12;;;;;;;13.20;2.13;;;10.20;99.90;;;;;;5101159;28;20038;-66
2023/12/25 05:20:37;;;;;;;13.95;2.55;;;10.10;99.90;;;;;;5100988;28;20069;-66
2023/12/25 05:23:03;;;;;;;20.27;2.50;;;10.10;99.90;;;;;;5129396;27;20043;-66
2023/12/25 05:25:29;;;;;;;18.23;2.53;;;10.10;99.90;;;;;;5100807;28;20043;-66
2023/12/25 05:27:55;;;;;;;18.40;2.83;;;10.10;99.90;;;;;;5101354;28;20082;-66
2023/12/25 05:30:24;;;;;;;18.27;2.95;;;10.10;99.90;;;;;;5083898;28;20085;-66
2023/12/25 05:32:53;;;;;;;16.65;2.47;;;10.10;99.90;;;;;;5101925;27;20081;-66
2023/12/25 05:35:19;;;;;;;17.80;3.00;;;10.10;99.90;;;;;;5099158;28;20055;-66
2023/12/25 05:37:44;;;;;;;23.33;2.42;;;10.00;99.90;;;;;;5101193;28;20424;-66
2023/12/25 05:40:11;;;;;;;18.58;2.60;;;10.10;99.90;;;;;;5099772;28;20106;-66
2023/12/25 05:42:37;;;;;;;15.43;2.17;;;10.00;99.90;;;;;;5100557;28;20043;-66
2023/12/25 05:45:03;;;;;;;15.77;2.70;;;9.90;99.90;;;;;;5100492;28;20486;-66
2023/12/25 05:47:28;;;;;;;19.92;2.53;;;10.00;99.90;;;;;;5084484;28;20047;-66
2023/12/25 05:49:54;;;;;;;21.73;2.50;;;9.90;99.90;;;;;;5100271;28;20086;-66
2023/12/25 05:52:23;;;;;;;13.52;2.50;;;10.10;99.90;;;;;;5099627;28;20587;-66
2023/12/25 05:54:48;;;;;;;20.02;2.42;;;9.90;99.90;;;;;;5132403;27;20073;-66
2023/12/25 05:57:14;;;;;;;20.08;2.50;;;9.90;99.90;;;;;;5100967;28;20047;-66
2023/12/25 05:59:40;;;;;;;16.92;2.25;;;9.90;99.90;;;;;;5099898;28;20050;-65
2023/12/25 06:02:05;;;;;;;16.95;2.65;;;9.90;99.90;;;;;;5083261;28;20060;-66
2023/12/25 06:04:31;;;;;;;13.38;2.78;;;9.90;99.90;;;;;;5083480;28;20075;-66
2023/12/25 06:06:57;;;;;;;19.10;2.58;;;9.90;99.90;;;;;;5100056;28;20058;-65
2023/12/25 06:09:25;;;;;;;17.73;2.85;;;9.90;99.90;;;;;;5100163;28;20067;-65
2023/12/25 06:11:50;;;;;;;15.52;2.25;;;9.80;99.90;;;;;;5097645;28;20066;-66
2023/12/25 06:14:16;;;;;;;23.33;3.63;;;9.80;99.90;;;;;;5090048;28;20047;-66
2023/12/25 06:16:42;;;;;;;15.82;2.88;;;9.80;99.90;;;;;;5100554;28;20043;-66
2023/12/25 06:19:08;;;;;;;13.80;2.80;;;9.80;99.90;;;;;;5091833;28;20168;-66
2023/12/25 06:21:34;;;;;;;20.75;2.83;;;9.80;99.90;;;;;;5122203;27;20503;-66
2023/12/25 06:23:59;;;;;;;15.50;2.80;;;9.80;99.90;;;;;;5118891;27;20056;-66
2023/12/25 06:26:25;;;;;;;22.10;3.30;;;9.80;99.90;;;;;;5098808;27;20504;-66
2023/12/25 06:28:51;;;;;;;19.65;2.72;;;9.80;99.90;;;;;;5094241;28;20054;-67
2023/12/25 06:31:17;;;;;;;17.38;2.67;;;9.80;99.90;;;;;;5075246;28;20953;-66
2023/12/25 06:33:42;;;;;;;22.00;2.83;;;9.70;99.90;;;;;;5090941;28;20043;-66
2023/12/25 06:36:08;;;;;;;18.30;3.50;;;9.70;99.90;;;;;;5099862;28;20039;-66
2023/12/25 06:38:35;;;;;;;23.15;2.72;;;9.70;99.90;;;;;;5092933;28;20050;-66
2023/12/25 06:41:01;;;;;;;24.10;2.60;;;9.70;99.90;;;;;;5093699;28;20051;-66
2023/12/25 06:43:27;;;;;;;17.10;3.03;;;9.70;99.90;;;;;;5084292;28;20420;-66
2023/12/25 06:45:52;;;;;;;24.27;3.17;;;9.70;99.90;;;;;;5071634;28;20056;-66
2023/12/25 06:48:18;;;;;;;20.45;2.70;;;9.70;99.90;;;;;;5088244;28;20036;-65
2023/12/25 06:50:44;;;;;;;19.50;3.13;;;9.70;99.90;;;;;;5077044;28;20731;-66
2023/12/25 06:53:10;;;;;;;18.17;2.10;;;9.70;99.90;;;;;;5091081;28;20082;-66
2023/12/25 06:55:36;;;;;;;16.25;2.65;;;9.70;99.90;;;;;;5125881;27;20662;-66
2023/12/25 06:58:02;;;;;;;18.10;2.95;;;9.70;99.90;;;;;;5087702;28;20046;-68
2023/12/25 07:00:27;;;;;;;25.45;2.92;;;9.70;99.90;;;;;;5092834;28;20044;-66
2023/12/25 07:02:53;;;;;;;14.98;2.42;;;9.70;99.90;;;;;;5073357;28;20648;-64
2023/12/25 07:05:19;;;;;;;19.92;2.63;;;9.70;99.90;;;;;;5099110;27;20049;-66
2023/12/25 07:07:47;;;;;;;17.23;2.15;;;9.70;99.90;;;;;;5092759;27;20044;-66
2023/12/25 07:10:13;;;;;;;13.50;2.42;;;9.70;99.90;;;;;;5093225;28;20480;-67
2023/12/25 07:12:39;;;;;;;19.08;2.95;;;9.70;99.90;;;;;;5092198;28;20511;-65
2023/12/25 07:15:06;;;;;;;15.63;2.17;;;9.70;99.90;;;;;;5122886;27;20040;-68
2023/12/25 07:17:32;;;;;;;18.50;2.90;;;9.70;99.90;;;;;;5119544;27;20098;-66
2023/12/25 07:19:58;;;;;;;21.58;2.83;;;9.70;99.90;;;;;;5099209;28;20036;-65
2023/12/25 07:22:24;;;;;;;20.90;3.20;;;9.70;99.90;;;;;;5119084;27;20584;-67
2023/12/25 07:24:53;;;;;;;18.08;2.75;;;9.70;99.90;;;;;;5094140;28;20079;-66
2023/12/25 07:27:19;;;;;;;18.13;2.97;;;9.70;99.90;;;;;;5071981;28;20035;-66
2023/12/25 07:29:45;;;;;;;18.80;2.55;;;9.70;99.90;;;;;;5070541;28;20120;-66
2023/12/25 07:32:10;;;;;;;15.63;2.70;;;9.60;99.90;;;;;;5094995;27;20557;-66
2023/12/25 07:34:36;;;;;;;16.85;2.63;;;9.60;99.90;;;;;;5123321;27;20470;-65
2023/12/25 07:37:02;;;;;;;14.00;2.40;;;9.60;99.90;;;;;;5082092;28;20800;-65
2023/12/25 07:39:28;;;;;;;16.75;2.53;;;9.70;99.90;;;;;;5099581;28;20127;-67
2023/12/25 07:41:55;;;;;;;20.45;2.63;;;9.60;99.90;;;;;;5095238;28;20044;-66
2023/12/25 07:44:22;;;;;;;15.23;2.30;;;9.60;99.90;;;;;;5072465;28;20441;-66
2023/12/25 07:46:48;;;;;;;18.13;2.08;;;9.60;99.90;;;;;;5086451;28;20089;-66
2023/12/25 07:49:13;;;;;;;14.05;2.05;;;9.60;99.90;;;;;;5084770;28;20052;-66
2023/12/25 07:51:39;;;;;;;14.02;2.00;;;9.60;99.90;;;;;;5085791;27;20065;-66
2023/12/25 07:54:05;;;;;;;13.77;2.30;;;10.00;99.90;;;;;;5085894;28;20116;-66
2023/12/25 07:56:30;;;;;;;15.75;2.95;;;9.60;99.90;;;;;;5090290;28;20130;-66
2023/12/25 07:58:57;;;;;;;17.20;2.17;;;9.90;99.90;;;;;;5093425;27;20051;-66
2023/12/25 08:01:23;;;;;;;15.23;2.50;;;9.60;99.90;;;;;;5097630;27;20065;-66
2023/12/25 08:03:52;;;;;;;16.42;2.13;;;9.60;99.90;;;;;;5081856;28;20040;-67
2023/12/25 08:06:18;;;;;;;16.95;2.63;;;9.60;99.90;;;;;;5100695;28;20051;-66
2023/12/25 08:08:45;;;;;;;17.80;2.08;;;9.60;99.90;;;;;;5101674;28;20054;-65
2023/12/25 08:11:16;;;;;;;15.82;2.60;;;9.60;99.90;;;;;;5102881;28;20150;-66
2023/12/25 08:13:42;;;;;;;15.32;1.95;;;9.60;99.90;;;;;;5082052;28;20467;-66
2023/12/25 08:16:08;;;;;;;12.32;2.20;;;9.50;99.90;;;;;;5084043;28;20075;-65
2023/12/25 08:18:35;;;;;;;10.93;1.92;;;9.60;99.90;;;;;;5082328;28;20050;-66
2023/12/25 08:21:01;;;;;;;19.80;1.98;;;9.50;99.90;;;;;;5102039;28;20047;-65
2023/12/25 08:23:26;;;;;;;16.88;2.05;;;9.50;99.90;;;;;;5103449;28;20098;-65
2023/12/25 08:25:52;;;;;;;14.35;2.08;;;9.50;99.90;;;;;;5104610;28;20055;-65
2023/12/25 08:28:18;;;;;;;14.25;1.77;;;9.40;99.90;;;;;;5087465;28;20057;-67
2023/12/25 08:30:43;;;;;;;12.15;1.75;;;9.40;99.90;;;;;;5103790;28;20040;-65
2023/12/25 08:33:09;;;;;;;9.65;2.53;;;9.40;99.90;;;;;;5104084;28;20188;-65
2023/12/25 08:35:35;;;;;;;7.47;1.42;;;9.40;99.90;;;;;;5104535;28;20120;-65
2023/12/25 08:38:01;;;;;;;13.45;1.33;;;9.30;99.90;;;;;;5105247;28;20571;-65
2023/12/25 08:40:27;;;;;;;13.57;1.60;;;9.30;99.90;;;;;;5087987;28;20043;-65
2023/12/25 08:42:53;;;;;;;11.13;1.30;;;9.30;99.90;;;;;;5088298;28;20047;-66
2023/12/25 08:45:19;;;;;;;13.75;1.98;;;9.50;99.90;;;;;;5088370;28;20665;-65
2023/12/25 08:47:45;;;;;;;9.30;1.42;;;9.30;99.90;;;;;;5088534;28;20085;-66
2023/12/25 08:50:11;;;;;;;11.60;2.35;;;9.30;99.90;;;;;;5104938;27;20047;-65
2023/12/25 08:52:37;;;;;;;10.75;1.67;;;9.20;99.90;;;;;;5139196;27;20078;-66
2023/12/25 08:55:03;;;;;;;11.65;1.67;;;9.20;99.90;;;;;;5104976;28;20047;-65
2023/12/25 08:57:30;;;;;;;13.65;1.50;;;9.20;99.90;;;;;;5087719;28;20048;-66
2023/12/25 08:59:55;;;;;;;9.85;1.80;;;9.20;99.90;;;;;;5139282;27;20051;-67
2023/12/25 09:02:21;;;;;;;12.75;1.40;;;9.20;99.90;;;;;;5139277;27;20043;-65
2023/12/25 09:04:52;;;;;;;14.23;1.70;;;9.10;99.90;;;;;;5104847;28;20043;-66
2023/12/25 09:07:18;;;;;;;11.07;1.70;;;9.40;99.90;;;;;;5139705;27;20055;-66
2023/12/25 09:09:44;;;;;;;11.55;1.77;;;9.10;99.90;;;;;;5088139;28;20494;-66
2023/12/25 09:12:09;;;;;;;10.70;1.48;;;9.10;99.90;;;;;;5138911;27;20043;-66
2023/12/25 09:14:35;;;;;;;12.85;1.60;;;9.10;99.90;;;;;;5138831;27;20047;-69
2023/12/25 09:17:01;;;;;;;12.05;1.80;;;9.10;99.90;;;;;;5087302;28;20047;-66
2023/12/25 09:19:26;;;;;;;12.52;1.95;;;9.10;99.90;;;;;;5103799;28;20058;-66
2023/12/25 09:21:52;;;;;;;11.00;1.60;;;9.00;99.90;;;;;;5087287;28;20147;-66
2023/12/25 09:24:18;;;;;;;7.82;1.67;;;9.00;99.90;;;;;;5138651;27;20051;-66
2023/12/25 09:26:44;;;;;;;12.93;1.88;;;9.10;99.90;;;;;;5104520;28;20529;-66
2023/12/25 09:29:11;;;;;;;9.13;1.70;;;9.00;99.90;;;;;;5104730;28;20142;-65
2023/12/25 09:31:37;;;;;;;13.82;1.90;;;9.00;99.90;;;;;;5104130;28;20052;-65
2023/12/25 09:34:02;;;;;;;15.48;1.95;;;9.00;99.90;;;;;;5104497;28;20054;-66
2023/12/25 09:36:29;;;;;;;12.82;2.00;;;9.00;99.90;;;;;;5087192;28;20561;-65
2023/12/25 09:38:55;;;;;;;10.38;1.83;;;9.00;99.90;;;;;;5104325;28;20130;-66
2023/12/25 09:41:24;;;;;;;13.07;1.73;;;9.00;99.90;;;;;;5104084;28;20135;-65
2023/12/25 09:43:52;;;;;;;10.77;1.55;;;9.00;99.90;;;;;;5104047;28;20507;-65
2023/12/25 09:46:19;;;;;;;13.35;1.88;;;9.00;99.90;;;;;;5104453;28;20415;-66
2023/12/25 09:48:46;;;;;;;11.30;1.85;;;9.00;99.90;;;;;;5104470;28;20046;-66
2023/12/25 09:51:12;;;;;;;9.32;1.70;;;9.00;99.90;;;;;;5103820;28;20083;-65
2023/12/25 09:53:39;;;;;;;10.20;1.42;;;9.00;99.90;;;;;;5138522;27;20441;-66
2023/12/25 09:56:08;;;;;;;10.70;2.13;;;9.00;99.90;;;;;;5138758;27;20048;-66
2023/12/25 09:58:35;;;;;;;11.75;1.60;;;9.10;99.90;;;;;;5087577;28;20064;-66
2023/12/25 10:01:02;;;;;;;15.55;2.40;;;9.10;99.90;;;;;;5139060;27;20082;-69
2023/12/25 10:03:28;;;;;;;12.93;2.10;;;9.10;99.90;;;;;;5087573;28;20087;-66
2023/12/25 10:05:54;;;;;;;15.85;2.28;;;9.10;99.90;;;;;;5087415;28;20389;-66
2023/12/25 10:08:20;;;;;;;15.35;1.90;;;9.10;99.90;;;;;;5104740;28;20115;-66
2023/12/25 10:10:46;;;;;;;9.93;1.73;;;9.10;99.90;;;;;;5138752;27;20101;-66
2023/12/25 10:13:12;;;;;;;12.23;1.77;;;9.10;99.90;;;;;;5100345;28;20531;-66
2023/12/25 10:15:38;;;;;;;18.85;2.13;;;9.10;99.90;;;;;;5104277;28;20094;-66
2023/12/25 10:18:05;;;;;;;15.75;1.77;;;9.20;99.90;;;;;;5104271;28;20139;-66
2023/12/25 10:20:31;;;;;;;10.18;1.50;;;9.20;99.90;;;;;;5104250;28;20055;-66
2023/12/25 10:22:57;;;;;;;15.60;1.90;;;9.20;99.90;;;;;;5104384;28;20466;-66
2023/12/25 10:25:28;;;;;;;19.15;1.98;;;9.20;99.90;;;;;;5104020;28;20112;-66
2023/12/25 10:27:54;;;;;;;9.80;1.88;;;9.10;99.90;;;;;;5104474;28;20518;-66
2023/12/25 10:30:22;;;;;;;15.27;2.60;;;9.20;99.90;;;;;;5090393;28;20150;-74
2023/12/25 10:32:49;;;;;;;11.52;1.98;;;9.20;99.90;;;;;;5107806;28;20055;-65
2023/12/25 10:35:19;;;;;;;16.13;2.10;;;9.20;99.90;;;;;;5107951;28;20122;-66
2023/12/25 10:37:45;;;;;;;15.30;1.95;;;9.20;99.90;;;;;;5108075;28;20043;-65
2023/12/25 10:40:19;;;;;;;12.75;1.90;;;9.20;99.90;;;;;;5107247;28;20043;-65
2023/12/25 10:42:48;;;;;;;18.67;2.35;;;9.20;99.90;;;;;;5107548;28;20051;-66
2023/12/25 10:45:22;;;;;;;17.77;2.17;;;9.20;99.90;;;;;;5107195;28;20504;-65
2023/12/25 10:47:50;;;;;;;13.75;2.45;;;9.20;99.90;;;;;;5107655;28;20611;-65
2023/12/25 10:50:27;;;;;;;10.00;1.90;;;9.20;99.90;;;;;;5107300;28;20067;-65
2023/12/25 10:53:16;;;;;;;11.23;2.20;;;9.30;99.90;;;;;;5106861;28;20412;-65
2023/12/25 10:55:44;;;;;;;14.82;2.33;;;9.30;99.90;;;;;;5107066;28;20051;-66
2023/12/25 10:58:13;;;;;;;11.32;2.25;;;9.50;99.90;;;;;;5089864;28;20511;-66
2023/12/25 11:00:56;;;;;;;13.27;2.38;;;9.30;99.90;;;;;;5142038;27;20058;-66
2023/12/25 11:03:22;;;;;;;15.70;2.40;;;9.30;99.90;;;;;;5141913;27;20065;-66
2023/12/25 11:05:48;;;;;;;21.75;2.60;;;9.40;99.90;;;;;;5141667;27;20488;-66
2023/12/25 11:08:17;;;;;;;18.17;2.30;;;9.40;99.90;;;;;;5141472;27;20691;-66
2023/12/25 11:10:43;;;;;;;17.75;2.70;;;9.50;99.90;;;;;;5141696;27;20484;-66
2023/12/25 11:13:10;;;;;;;18.77;2.47;;;9.40;99.90;;;;;;5106807;28;20051;-66
2023/12/25 11:15:35;;;;;;;14.05;2.42;;;9.40;99.90;;;;;;5106958;28;20066;-66
2023/12/25 11:18:01;;;;;;;16.40;2.55;;;9.40;99.90;;;;;;5106680;28;20047;-66
2023/12/25 11:20:30;;;;;;;19.33;2.10;;;9.40;99.90;;;;;;5106708;28;20069;-66
2023/12/25 11:22:57;;;;;;;15.43;2.30;;;9.40;99.90;;;;;;5106107;27;20150;-66
2023/12/25 11:25:27;;;;;;;18.55;3.25;;;9.40;99.90;;;;;;5089133;28;20051;-66
2023/12/25 11:27:54;;;;;;;16.48;3.17;;;9.40;99.90;;;;;;5106233;27;20036;-67
2023/12/25 11:30:23;;;;;;;19.65;2.45;;;9.50;99.90;;;;;;5106647;28;20050;-66
2023/12/25 11:32:50;;;;;;;22.17;2.47;;;9.50;99.90;;;;;;5089644;28;20094;-66
2023/12/25 11:35:32;;;;;;;14.23;2.42;;;9.50;99.90;;;;;;5108115;28;20043;-66
2023/12/25 11:38:27;;;;;;;13.90;2.83;;;9.50;99.90;;;;;;5090167;28;20036;-66
2023/12/25 11:40:53;;;;;;;24.67;2.50;;;9.50;99.90;;;;;;5084301;28;20094;-66
2023/12/25 11:43:20;;;;;;;15.52;2.50;;;9.90;99.90;;;;;;5090256;28;20521;-66
2023/12/25 11:45:47;;;;;;;17.67;3.20;;;9.50;99.90;;;;;;5106636;28;20051;-66
2023/12/25 11:48:16;;;;;;;24.40;2.75;;;9.60;99.90;;;;;;5107191;28;20453;-66
2023/12/25 11:50:43;;;;;;;19.15;3.40;;;9.80;99.90;;;;;;5106356;28;20051;-67
2023/12/25 11:53:09;;;;;;;14.27;2.63;;;9.60;99.90;;;;;;5106707;28;20044;-66
2023/12/25 11:55:35;;;;;;;19.25;2.72;;;9.60;99.90;;;;;;5141071;27;20080;-66
2023/12/25 11:58:04;;;;;;;20.27;3.38;;;9.50;99.90;;;;;;5140882;27;20058;-66
2023/12/25 12:00:31;;;;;;;23.73;3.35;;;9.50;99.90;;;;;;5141111;27;20043;-66
2023/12/25 12:02:58;;;;;;;18.67;3.00;;;9.60;99.90;;;;;;5106291;28;20048;-66
2023/12/25 12:05:24;;;;;;;18.63;3.00;;;9.50;99.90;;;;;;5089701;28;20039;-66
2023/12/25 12:07:50;;;;;;;19.50;2.97;;;9.60;99.90;;;;;;5140653;27;20515;-66
2023/12/25 12:10:17;;;;;;;19.65;2.50;;;9.60;99.90;;;;;;5089360;28;20055;-66
2023/12/25 12:12:43;;;;;;;27.50;3.47;;;9.60;99.90;;;;;;5140291;27;20047;-66
2023/12/25 12:15:09;;;;;;;17.92;3.92;;;9.60;99.90;;;;;;5106104;28;20511;-66
2023/12/25 12:17:35;;;;;;;14.68;2.88;;;9.50;99.90;;;;;;5140956;27;20050;-66
2023/12/25 12:20:02;;;;;;;19.85;3.58;;;9.60;99.90;;;;;;5140890;27;20052;-66
2023/12/25 12:22:29;;;;;;;17.83;3.10;;;9.60;99.90;;;;;;5140908;27;20085;-67
2023/12/25 12:25:12;;;;;;;26.55;4.15;;;9.60;99.90;;;;;;5139490;27;20043;-67
2023/12/25 12:27:37;;;;;;;19.85;3.88;;;9.60;99.90;;;;;;5139653;27;20126;-66
2023/12/25 12:30:05;;;;;;;24.05;4.15;;;9.60;99.90;;;;;;5139953;27;20181;-66
2023/12/25 12:32:30;;;;;;;21.63;4.85;;;9.60;99.90;;;;;;5139770;27;20124;-66
2023/12/25 12:34:58;;;;;;;18.08;5.03;;;9.60;99.90;;;;;;5139163;27;20048;-66
2023/12/25 12:37:25;;;;;;;20.90;4.82;;;9.60;99.90;;;;;;5088331;28;20051;-66
2023/12/25 12:39:51;;;;;;;23.17;4.93;;;9.60;99.90;;;;;;5107038;28;20052;-66